createdAt,value
2019-04-14T05:28:50.679Z,18.44
2019-04-14T06:38:56.488Z,19.25
2019-04-14T06:48:45.291Z,19.37
2019-04-14T06:54:54.484Z,19.14
2019-04-14T06:57:23.619Z,19.19
2019-04-14T07:03:25.444Z,19.11
2019-04-14T07:06:00.924Z,18.98
2019-04-14T07:08:30.072Z,18.90
2019-04-14T07:11:04.613Z,18.87
2019-04-14T07:13:40.371Z,18.76
2019-04-14T07:16:16.747Z,18.68
2019-04-14T07:18:55.739Z,18.70
2019-04-14T07:21:38.802Z,18.78
2019-04-14T07:24:20.468Z,18.77
2019-04-14T07:26:51.507Z,18.81
2019-04-14T07:29:25.672Z,18.78
2019-04-14T07:32:26.830Z,18.79
2019-04-14T07:37:58.819Z,18.69
2019-04-14T07:40:36.661Z,18.73
2019-04-14T07:43:18.607Z,18.67
2019-04-14T07:45:50.323Z,18.73
2019-04-14T07:48:52.615Z,18.59
2019-04-14T07:51:30.871Z,18.58
2019-04-14T07:54:11.748Z,18.54
2019-04-14T07:57:06.597Z,18.60
2019-04-14T07:59:42.863Z,18.65
2019-04-14T08:02:22.384Z,18.62
2019-04-14T08:05:02.092Z,18.58
2019-04-14T08:07:40.721Z,18.67
2019-04-14T08:10:30.458Z,18.55
2019-04-14T08:13:06.452Z,18.54
2019-04-14T08:15:43.491Z,18.48
2019-04-14T08:18:18.180Z,18.55
2019-04-14T08:21:16.989Z,18.57
2019-04-14T08:23:52.764Z,18.62
2019-04-14T08:26:29.338Z,18.56
2019-04-14T08:29:11.922Z,18.49
2019-04-14T08:31:47.806Z,18.49
2019-04-14T08:34:34.989Z,18.45
2019-04-14T08:36:58.648Z,18.36
2019-04-14T08:39:37.553Z,18.27
2019-04-14T08:42:19.599Z,18.23
2019-04-14T08:47:50.283Z,18.22
2019-04-14T08:50:45.571Z,18.37
2019-04-14T08:53:34.946Z,18.32
2019-04-14T08:56:12.842Z,18.24
2019-04-14T08:58:48.721Z,18.26
2019-04-14T09:01:20.915Z,18.31
2019-04-14T09:04:05.297Z,18.26
2019-04-14T09:06:46.927Z,18.34
2019-04-14T09:09:19.498Z,18.44
2019-04-14T09:11:52.621Z,18.51
2019-04-14T09:14:22.381Z,18.71
2019-04-14T09:16:55.957Z,18.88
2019-04-14T09:19:30.041Z,19.12
2019-04-14T09:22:14.895Z,19.12
2019-04-14T09:24:50.640Z,19.16
2019-04-14T09:27:24.839Z,19.21
2019-04-14T09:29:54.566Z,19.25
2019-04-14T09:32:31.297Z,19.62
2019-04-14T09:35:07.290Z,19.75
2019-04-14T09:37:50.942Z,20.16
2019-04-14T09:40:29.194Z,20.54
2019-04-14T09:43:03.251Z,20.07
2019-04-14T09:45:36.047Z,20.04
2019-04-14T09:48:12.243Z,19.95
2019-04-14T09:51:03.925Z,19.99
2019-04-14T09:53:25.500Z,20.02
2019-04-14T09:56:36.974Z,19.65
2019-04-14T09:58:41.003Z,20.14
2019-04-14T10:01:19.475Z,21.13
2019-04-14T10:03:52.942Z,22.07
2019-04-14T10:06:28.765Z,21.39
2019-04-14T10:09:07.478Z,20.79
2019-04-14T10:21:00.760Z,20.81
2019-04-14T10:23:29.870Z,20.94
2019-04-14T10:25:58.992Z,21.18
2019-04-14T10:28:36.762Z,21.18
2019-04-14T10:31:09.254Z,21.92
2019-04-14T10:33:54.171Z,23.78
2019-04-14T10:36:27.195Z,23.09
2019-04-14T10:44:52.307Z,22.86
2019-04-14T10:47:27.257Z,22.97
2019-04-14T10:49:56.421Z,23.06
2019-04-14T10:52:30.365Z,23.21
2019-04-14T10:55:06.769Z,23.40
2019-04-14T10:57:36.223Z,23.43
2019-04-14T11:00:11.170Z,23.57
2019-04-14T11:02:40.281Z,23.90
2019-04-14T11:05:08.652Z,24.18
2019-04-14T11:07:38.185Z,24.36
2019-04-14T11:13:20.605Z,24.99
2019-04-14T11:15:55.861Z,25.35
2019-04-14T11:18:28.010Z,25.58
2019-04-14T11:21:01.421Z,25.74
2019-04-14T11:23:30.953Z,25.95
2019-04-14T11:26:05.975Z,25.98
2019-04-14T11:28:35.124Z,25.98
2019-04-14T11:31:04.492Z,26.15
2019-04-14T11:33:51.132Z,26.24
2019-04-14T11:36:38.422Z,26.52
2019-04-14T11:39:10.715Z,26.88
2019-04-14T11:41:39.799Z,27.03
2019-04-14T11:44:13.413Z,27.37
2019-04-14T11:46:42.587Z,27.41
2019-04-14T11:49:15.037Z,27.69
2019-04-14T11:51:54.667Z,27.55
2019-04-14T11:54:16.559Z,27.45
2019-04-14T11:56:45.736Z,27.26
2019-04-14T11:59:18.055Z,26.78
2019-04-14T12:01:51.883Z,26.68
2019-04-14T12:04:28.816Z,26.56
2019-04-14T12:07:02.049Z,25.79
2019-04-14T12:09:32.838Z,25.52
2019-04-14T12:44:38.789Z,23.04
2019-04-14T12:47:20.213Z,22.53
2019-04-14T12:50:01.228Z,22.03
2019-04-14T12:52:30.357Z,21.81
2019-04-14T14:02:11.299Z,20.16
2019-04-14T14:04:40.474Z,20.11
2019-04-14T14:07:09.593Z,20.04
2019-04-14T14:09:38.792Z,20.02
2019-04-14T14:12:09.543Z,20.03
2019-04-14T14:14:42.791Z,19.85
2019-04-14T14:17:19.481Z,19.87
2019-04-14T14:20:02.321Z,19.85
2019-04-14T14:28:53.056Z,19.63
2019-04-14T14:31:22.611Z,19.64
2019-04-14T14:33:51.742Z,19.60
2019-04-14T14:36:23.995Z,19.60
2019-04-14T14:38:53.114Z,19.68
2019-04-14T14:41:22.249Z,19.76
2019-04-14T14:43:51.397Z,19.75
2019-04-14T14:46:24.609Z,19.70
2019-04-14T14:49:04.374Z,19.71
2019-04-14T14:51:35.143Z,19.70
2019-04-14T14:54:04.273Z,19.71
2019-04-14T14:56:33.418Z,19.73
2019-04-14T14:59:02.657Z,19.73
2019-04-14T15:01:31.892Z,19.73
2019-04-14T15:07:36.333Z,19.68
2019-04-14T15:10:06.712Z,19.70
2019-04-14T15:12:35.857Z,19.73
2019-04-14T15:15:06.045Z,19.69
2019-04-14T15:17:35.164Z,19.68
2019-04-14T15:20:06.167Z,19.64
2019-04-14T15:22:35.333Z,19.63
2019-04-14T15:25:04.917Z,19.51
2019-04-14T15:27:33.321Z,19.40
2019-04-14T15:30:02.413Z,19.32
2019-04-14T15:32:31.552Z,19.21
2019-04-14T15:35:00.691Z,19.15
2019-04-14T15:37:29.837Z,19.20
2019-04-14T15:39:58.969Z,19.27
2019-04-14T15:42:28.084Z,19.35
2019-04-14T15:44:57.206Z,19.33
2019-04-14T15:47:26.427Z,19.38
2019-04-14T15:49:55.585Z,19.42
2019-04-14T15:52:24.728Z,19.44
2019-04-14T15:54:53.870Z,19.47
2019-04-14T15:57:30.401Z,19.49
2019-04-14T16:00:17.595Z,19.47
2019-04-14T16:03:18.206Z,19.39
2019-04-14T16:05:50.710Z,19.47
2019-04-14T16:08:37.799Z,19.59
2019-04-14T16:11:17.314Z,19.67
2019-04-14T16:13:50.516Z,19.68
2019-04-14T16:16:23.876Z,19.75
2019-04-14T16:18:54.703Z,19.85
2019-04-14T16:21:23.838Z,19.90
2019-04-14T16:23:52.967Z,20.00
2019-04-14T16:26:23.744Z,20.03
2019-04-14T16:28:57.199Z,20.00
2019-04-14T16:31:44.195Z,20.06
2019-04-14T16:34:20.733Z,20.08
2019-04-14T16:36:53.134Z,20.11
2019-04-14T16:39:22.298Z,20.08
2019-04-14T16:41:51.410Z,20.11
2019-04-14T16:47:05.410Z,20.21
2019-04-14T16:49:34.542Z,20.18
2019-04-14T16:52:05.389Z,20.16
2019-04-14T16:54:39.056Z,20.14
2019-04-14T16:57:29.181Z,20.16
2019-04-14T16:59:58.588Z,20.22
2019-04-14T17:02:52.230Z,20.23
2019-04-14T17:05:21.327Z,20.25
2019-04-14T17:07:53.389Z,20.23
2019-04-14T17:10:21.303Z,20.27
2019-04-14T17:12:50.494Z,20.27
2019-04-14T17:15:30.339Z,20.32
2019-04-14T17:18:07.219Z,20.35
2019-04-14T17:20:54.382Z,20.41
2019-04-14T17:23:36.345Z,20.41
2019-04-14T17:26:43.587Z,20.41
2019-04-14T17:29:22.618Z,20.43
2019-04-14T17:31:59.291Z,20.52
2019-04-14T17:34:36.151Z,20.52
2019-04-14T17:37:20.514Z,20.50
2019-04-14T17:39:59.844Z,20.52
2019-04-14T17:42:30.970Z,20.52
2019-04-14T17:45:17.229Z,20.55
2019-04-14T17:47:50.660Z,20.53
2019-04-14T17:50:46.558Z,20.53
2019-04-14T17:53:17.833Z,20.51
2019-04-14T17:55:55.021Z,20.49
2019-04-14T17:58:35.289Z,20.50
2019-04-14T18:01:39.161Z,20.51
2019-04-14T18:05:04.719Z,20.50
2019-04-14T18:07:34.848Z,20.56
2019-04-14T18:16:12.901Z,20.64
2019-04-14T18:21:47.227Z,20.64
2019-04-14T18:25:04.646Z,20.69
2019-04-14T18:30:24.233Z,20.74
2019-04-14T18:33:03.678Z,20.72
2019-04-14T18:35:33.711Z,20.67
2019-04-14T18:38:19.388Z,20.64
2019-04-14T19:09:01.643Z,20.69
2019-04-14T19:21:08.120Z,20.69
2019-04-14T19:34:02.187Z,20.62
2019-04-14T19:36:37.175Z,20.61
2019-04-14T19:39:10.146Z,20.58
2019-04-14T19:41:39.268Z,20.54
2019-04-14T19:44:09.918Z,20.50
2019-04-14T19:46:40.309Z,20.51
2019-04-14T19:49:10.247Z,20.35
2019-04-14T19:52:07.559Z,20.39
2019-04-14T19:54:36.666Z,20.38
2019-04-14T19:57:05.862Z,20.30
2019-04-14T19:59:34.995Z,20.20
2019-04-14T20:02:04.116Z,20.22
2019-04-14T20:04:33.269Z,20.19
2019-04-14T20:07:02.380Z,20.21
2019-04-14T20:09:31.493Z,20.23
2019-04-14T20:12:00.624Z,20.21
2019-04-14T20:14:29.737Z,20.20
2019-04-14T20:17:05.798Z,20.14
2019-04-14T20:19:41.467Z,20.14
2019-04-14T20:22:17.909Z,20.10
2019-04-14T20:25:04.847Z,20.08
2019-04-14T20:27:47.194Z,20.03
2019-04-14T20:30:20.650Z,20.03
2019-04-14T20:32:50.528Z,19.96
2019-04-14T20:35:19.638Z,19.91
2019-04-14T20:37:48.777Z,19.89
2019-04-14T20:40:17.892Z,19.87
2019-04-14T20:42:47.013Z,19.81
2019-04-14T20:45:16.479Z,19.81
2019-04-14T20:47:45.588Z,19.78
2019-04-14T20:50:14.761Z,19.77
2019-04-14T20:52:43.887Z,19.74
2019-04-14T20:55:12.987Z,19.69
2019-04-14T20:57:42.394Z,19.65
2019-04-14T21:00:12.491Z,19.61
2019-04-14T21:03:01.595Z,19.63
2019-04-14T21:05:38.457Z,19.56
2019-04-14T21:08:09.203Z,19.53
2019-04-14T21:10:48.595Z,19.49
2019-04-14T21:13:19.336Z,19.48
2019-04-14T21:15:50.078Z,19.44
2019-04-14T21:18:35.921Z,19.40
2019-04-14T21:21:06.667Z,19.40
2019-04-14T21:23:37.411Z,19.33
2019-04-14T21:26:08.185Z,19.35
2019-04-14T21:28:38.930Z,19.33
2019-04-14T21:31:15.686Z,19.25
2019-04-14T21:33:49.388Z,19.27
2019-04-14T21:36:26.035Z,19.24
2019-04-14T21:39:12.959Z,19.24
2019-04-14T21:41:43.732Z,19.15
2019-04-14T21:44:12.847Z,19.13
2019-04-14T21:46:41.961Z,19.12
2019-04-14T21:49:11.107Z,19.08
2019-04-14T21:51:47.341Z,19.06
2019-04-14T21:54:17.239Z,19.06
2019-04-14T21:56:48.062Z,19.03
2019-04-14T21:59:18.806Z,19.02
2019-04-14T22:02:05.810Z,18.99
2019-04-14T22:04:48.851Z,19.00
2019-04-14T22:07:19.700Z,18.98
2019-04-14T22:09:49.171Z,18.95
2019-04-14T22:12:17.554Z,18.92
2019-04-14T22:14:46.652Z,18.88
2019-04-14T22:17:15.760Z,18.90
2019-04-14T22:19:44.866Z,18.88
2019-04-14T22:22:14.022Z,18.82
2019-04-14T22:24:43.399Z,18.81
2019-04-14T22:27:12.577Z,18.80
2019-04-14T22:29:41.707Z,18.81
2019-04-14T22:32:10.804Z,18.78
2019-04-14T22:34:39.914Z,18.76
2019-04-14T22:37:09.046Z,18.74
2019-04-14T22:39:39.330Z,18.71
2019-04-14T22:42:08.679Z,18.68
2019-04-14T22:44:37.820Z,18.70
2019-04-14T22:47:06.939Z,18.66
2019-04-14T22:49:36.039Z,18.64
2019-04-14T22:52:05.575Z,18.60
2019-04-14T22:54:33.970Z,18.57
2019-04-14T22:57:03.496Z,18.53
2019-04-14T22:59:32.635Z,18.52
2019-04-14T23:02:03.389Z,18.49
2019-04-14T23:04:34.163Z,18.46
2019-04-14T23:07:16.942Z,18.45
2019-04-14T23:09:50.478Z,18.41
2019-04-14T23:12:21.244Z,18.40
2019-04-14T23:14:52.007Z,18.37
2019-04-14T23:17:28.377Z,18.34
2019-04-14T23:19:59.125Z,18.32
2019-04-14T23:22:29.876Z,18.31
2019-04-14T23:24:59.012Z,18.30
2019-04-14T23:27:28.117Z,18.27
2019-04-14T23:29:57.234Z,18.24
2019-04-14T23:32:26.374Z,18.23
2019-04-14T23:34:55.477Z,18.20
2019-04-14T23:37:24.589Z,18.19
2019-04-14T23:39:53.729Z,18.18
2019-04-14T23:42:22.836Z,18.16
2019-04-14T23:44:51.944Z,18.15
2019-04-14T23:49:59.879Z,18.12
2019-04-14T23:52:28.987Z,18.09
2019-04-14T23:54:58.092Z,18.08
2019-04-14T23:57:27.219Z,18.07
2019-04-14T23:59:56.330Z,18.05
